sensor_id;sensor_type;location;lat;lon;timestamp;temperature;humidity
14097;DHT22;7125;48.106;11.544;2023-09-12T00:00:48;17.30;99.90
14097;DHT22;7125;48.106;11.544;2023-09-12T00:03:19;17.30;99.90
14097;DHT22;7125;48.106;11.544;2023-09-12T00:05:51;17.30;99.90
14097;DHT22;7125;48.106;11.544;2023-09-12T00:08:18;17.20;99.90
14097;DHT22;7125;48.106;11.544;2023-09-12T00:10:57;17.20;99.90
14097;DHT22;7125;48.106;11.544;2023-09-12T00:13:24;17.20;99.90
14097;DHT22;7125;48.106;11.544;2023-09-12T00:15:54;17.20;99.90
14097;DHT22;7125;48.106;11.544;2023-09-12T00:18:21;17.20;99.90
14097;DHT22;7125;48.106;11.544;2023-09-12T00:20:49;17.20;99.90
14097;DHT22;7125;48.106;11.544;2023-09-12T00:23:16;17.20;99.90
14097;DHT22;7125;48.106;11.544;2023-09-12T00:25:43;17.10;99.90
14097;DHT22;7125;48.106;11.544;2023-09-12T00:28:13;17.10;99.90
14097;DHT22;7125;48.106;11.544;2023-09-12T00:30:40;17.10;99.90
14097;DHT22;7125;48.106;11.544;2023-09-12T00:33:07;17.10;99.90
14097;DHT22;7125;48.106;11.544;2023-09-12T00:35:34;17.00;99.90
14097;DHT22;7125;48.106;11.544;2023-09-12T00:38:03;17.00;99.90
14097;DHT22;7125;48.106;11.544;2023-09-12T00:40:31;17.00;99.90
14097;DHT22;7125;48.106;11.544;2023-09-12T00:42:59;17.00;99.90
14097;DHT22;7125;48.106;11.544;2023-09-12T00:45:27;17.00;99.90
14097;DHT22;7125;48.106;11.544;2023-09-12T00:47:55;16.90;99.90
14097;DHT22;7125;48.106;11.544;2023-09-12T00:50:25;16.90;99.90
14097;DHT22;7125;48.106;11.544;2023-09-12T00:52:53;16.90;99.90
14097;DHT22;7125;48.106;11.544;2023-09-12T00:55:20;16.90;99.90
14097;DHT22;7125;48.106;11.544;2023-09-12T00:57:48;16.80;99.90
14097;DHT22;7125;48.106;11.544;2023-09-12T01:00:16;16.90;99.90
14097;DHT22;7125;48.106;11.544;2023-09-12T01:02:47;16.80;99.90
14097;DHT22;7125;48.106;11.544;2023-09-12T01:05:16;16.80;99.90
14097;DHT22;7125;48.106;11.544;2023-09-12T01:07:44;16.80;99.90
14097;DHT22;7125;48.106;11.544;2023-09-12T01:10:11;16.80;99.90
14097;DHT22;7125;48.106;11.544;2023-09-12T01:12:38;16.80;99.90
14097;DHT22;7125;48.106;11.544;2023-09-12T01:15:09;16.80;99.90
14097;DHT22;7125;48.106;11.544;2023-09-12T01:17:41;16.80;99.90
14097;DHT22;7125;48.106;11.544;2023-09-12T01:20:13;16.70;99.90
14097;DHT22;7125;48.106;11.544;2023-09-12T01:22:55;16.70;99.90
14097;DHT22;7125;48.106;11.544;2023-09-12T01:28:45;16.70;99.90
14097;DHT22;7125;48.106;11.544;2023-09-12T01:31:13;16.70;99.90
14097;DHT22;7125;48.106;11.544;2023-09-12T01:33:42;16.60;99.90
14097;DHT22;7125;48.106;11.544;2023-09-12T01:36:10;16.60;99.90
14097;DHT22;7125;48.106;11.544;2023-09-12T01:38:39;16.60;99.90
14097;DHT22;7125;48.106;11.544;2023-09-12T01:41:06;16.60;99.90
14097;DHT22;7125;48.106;11.544;2023-09-12T01:43:36;16.60;99.90
14097;DHT22;7125;48.106;11.544;2023-09-12T01:46:06;16.60;99.90
14097;DHT22;7125;48.106;11.544;2023-09-12T01:48:35;16.60;99.90
14097;DHT22;7125;48.106;11.544;2023-09-12T01:51:06;16.50;99.90
14097;DHT22;7125;48.106;11.544;2023-09-12T01:53:33;16.50;99.90
14097;DHT22;7125;48.106;11.544;2023-09-12T01:56:02;16.50;99.90
14097;DHT22;7125;48.106;11.544;2023-09-12T01:58:29;16.50;99.90
14097;DHT22;7125;48.106;11.544;2023-09-12T02:00:57;16.50;99.90
14097;DHT22;7125;48.106;11.544;2023-09-12T02:03:26;16.50;99.90
14097;DHT22;7125;48.106;11.544;2023-09-12T02:05:53;16.40;99.90
14097;DHT22;7125;48.106;11.544;2023-09-12T02:08:20;16.40;99.90
14097;DHT22;7125;48.106;11.544;2023-09-12T02:10:47;16.40;99.90
14097;DHT22;7125;48.106;11.544;2023-09-12T02:13:15;16.40;99.90
14097;DHT22;7125;48.106;11.544;2023-09-12T02:15:48;16.40;99.90
14097;DHT22;7125;48.106;11.544;2023-09-12T02:18:15;16.40;99.90
14097;DHT22;7125;48.106;11.544;2023-09-12T02:20:43;16.30;99.90
14097;DHT22;7125;48.106;11.544;2023-09-12T02:23:11;16.30;99.90
14097;DHT22;7125;48.106;11.544;2023-09-12T02:25:38;16.30;99.90
14097;DHT22;7125;48.106;11.544;2023-09-12T02:28:07;16.30;99.90
14097;DHT22;7125;48.106;11.544;2023-09-12T02:30:34;16.30;99.90
14097;DHT22;7125;48.106;11.544;2023-09-12T02:33:01;16.30;99.90
14097;DHT22;7125;48.106;11.544;2023-09-12T02:35:28;16.30;99.90
14097;DHT22;7125;48.106;11.544;2023-09-12T02:37:57;16.20;99.90
14097;DHT22;7125;48.106;11.544;2023-09-12T02:40:24;16.20;99.90
14097;DHT22;7125;48.106;11.544;2023-09-12T02:42:52;16.20;99.90
14097;DHT22;7125;48.106;11.544;2023-09-12T02:45:19;16.10;99.90
14097;DHT22;7125;48.106;11.544;2023-09-12T02:47:46;16.10;99.90
14097;DHT22;7125;48.106;11.544;2023-09-12T02:50:13;16.10;99.90
14097;DHT22;7125;48.106;11.544;2023-09-12T02:52:40;16.10;99.90
14097;DHT22;7125;48.106;11.544;2023-09-12T02:55:08;16.10;99.90
14097;DHT22;7125;48.106;11.544;2023-09-12T02:57:37;16.10;99.90
14097;DHT22;7125;48.106;11.544;2023-09-12T03:00:05;16.10;99.90
14097;DHT22;7125;48.106;11.544;2023-09-12T03:02:34;16.00;99.90
14097;DHT22;7125;48.106;11.544;2023-09-12T03:05:02;16.00;99.90
14097;DHT22;7125;48.106;11.544;2023-09-12T03:07:29;16.00;99.90
14097;DHT22;7125;48.106;11.544;2023-09-12T03:09:57;16.00;99.90
14097;DHT22;7125;48.106;11.544;2023-09-12T03:12:25;16.00;99.90
14097;DHT22;7125;48.106;11.544;2023-09-12T03:14:52;16.00;99.90
14097;DHT22;7125;48.106;11.544;2023-09-12T03:17:19;16.00;99.90
14097;DHT22;7125;48.106;11.544;2023-09-12T03:19:46;15.90;99.90
14097;DHT22;7125;48.106;11.544;2023-09-12T03:22:13;15.90;99.90
14097;DHT22;7125;48.106;11.544;2023-09-12T03:24:40;15.90;99.90
14097;DHT22;7125;48.106;11.544;2023-09-12T03:27:07;15.90;99.90
14097;DHT22;7125;48.106;11.544;2023-09-12T03:29:36;15.90;99.90
14097;DHT22;7125;48.106;11.544;2023-09-12T03:32:04;15.90;99.90
14097;DHT22;7125;48.106;11.544;2023-09-12T03:34:31;15.90;99.90
14097;DHT22;7125;48.106;11.544;2023-09-12T03:36:58;15.80;99.90
14097;DHT22;7125;48.106;11.544;2023-09-12T03:39:25;15.80;99.90
14097;DHT22;7125;48.106;11.544;2023-09-12T03:41:52;15.80;99.90
14097;DHT22;7125;48.106;11.544;2023-09-12T03:44:19;15.80;99.90
14097;DHT22;7125;48.106;11.544;2023-09-12T03:46:47;15.80;99.90
14097;DHT22;7125;48.106;11.544;2023-09-12T03:49:14;15.80;99.90
14097;DHT22;7125;48.106;11.544;2023-09-12T03:51:41;15.70;99.90
14097;DHT22;7125;48.106;11.544;2023-09-12T03:54:08;15.70;99.90
14097;DHT22;7125;48.106;11.544;2023-09-12T03:56:35;15.70;99.90
14097;DHT22;7125;48.106;11.544;2023-09-12T03:59:02;15.70;99.90
14097;DHT22;7125;48.106;11.544;2023-09-12T04:01:29;15.70;99.90
14097;DHT22;7125;48.106;11.544;2023-09-12T04:03:58;15.70;99.90
14097;DHT22;7125;48.106;11.544;2023-09-12T04:06:25;15.60;99.90
14097;DHT22;7125;48.106;11.544;2023-09-12T04:08:52;15.60;99.90
14097;DHT22;7125;48.106;11.544;2023-09-12T04:11:19;15.60;99.90
14097;DHT22;7125;48.106;11.544;2023-09-12T04:13:46;15.60;99.90
14097;DHT22;7125;48.106;11.544;2023-09-12T04:16:13;15.60;99.90
14097;DHT22;7125;48.106;11.544;2023-09-12T04:18:40;15.50;99.90
14097;DHT22;7125;48.106;11.544;2023-09-12T04:21:08;15.50;99.90
14097;DHT22;7125;48.106;11.544;2023-09-12T04:23:35;15.50;99.90
14097;DHT22;7125;48.106;11.544;2023-09-12T04:26:02;15.50;99.90
14097;DHT22;7125;48.106;11.544;2023-09-12T04:28:30;15.50;99.90
14097;DHT22;7125;48.106;11.544;2023-09-12T04:31:01;15.50;99.90
14097;DHT22;7125;48.106;11.544;2023-09-12T04:33:29;15.40;99.90
14097;DHT22;7125;48.106;11.544;2023-09-12T04:35:58;15.50;99.90
14097;DHT22;7125;48.106;11.544;2023-09-12T04:38:27;15.40;99.90
14097;DHT22;7125;48.106;11.544;2023-09-12T04:40:54;15.50;99.90
14097;DHT22;7125;48.106;11.544;2023-09-12T04:43:22;15.40;99.90
14097;DHT22;7125;48.106;11.544;2023-09-12T04:45:49;15.40;99.90
14097;DHT22;7125;48.106;11.544;2023-09-12T04:48:17;15.40;99.90
14097;DHT22;7125;48.106;11.544;2023-09-12T04:50:44;15.40;99.90
14097;DHT22;7125;48.106;11.544;2023-09-12T04:53:11;15.40;99.90
14097;DHT22;7125;48.106;11.544;2023-09-12T04:55:39;15.40;99.90
14097;DHT22;7125;48.106;11.544;2023-09-12T04:58:07;15.40;99.90
14097;DHT22;7125;48.106;11.544;2023-09-12T05:00:34;15.30;99.90
14097;DHT22;7125;48.106;11.544;2023-09-12T05:03:02;15.40;99.90
14097;DHT22;7125;48.106;11.544;2023-09-12T05:05:29;15.30;99.90
14097;DHT22;7125;48.106;11.544;2023-09-12T05:07:56;15.30;99.90
14097;DHT22;7125;48.106;11.544;2023-09-12T05:10:23;15.30;99.90
14097;DHT22;7125;48.106;11.544;2023-09-12T05:12:52;15.30;99.90
14097;DHT22;7125;48.106;11.544;2023-09-12T05:15:18;15.30;99.90
14097;DHT22;7125;48.106;11.544;2023-09-12T05:17:46;15.30;99.90
14097;DHT22;7125;48.106;11.544;2023-09-12T05:20:12;15.30;99.90
14097;DHT22;7125;48.106;11.544;2023-09-12T05:22:39;15.40;99.90
14097;DHT22;7125;48.106;11.544;2023-09-12T05:25:08;15.40;99.90
14097;DHT22;7125;48.106;11.544;2023-09-12T05:27:35;15.30;99.90
14097;DHT22;7125;48.106;11.544;2023-09-12T05:30:04;15.40;99.90
14097;DHT22;7125;48.106;11.544;2023-09-12T05:32:31;15.40;99.90
14097;DHT22;7125;48.106;11.544;2023-09-12T05:34:58;15.40;99.90
14097;DHT22;7125;48.106;11.544;2023-09-12T05:37:25;15.40;99.90
14097;DHT22;7125;48.106;11.544;2023-09-12T05:39:52;15.50;99.90
14097;DHT22;7125;48.106;11.544;2023-09-12T05:42:19;15.50;99.90
14097;DHT22;7125;48.106;11.544;2023-09-12T05:44:48;15.50;99.90
14097;DHT22;7125;48.106;11.544;2023-09-12T05:47:19;15.60;99.90
14097;DHT22;7125;48.106;11.544;2023-09-12T05:49:46;15.60;99.90
14097;DHT22;7125;48.106;11.544;2023-09-12T05:52:13;15.60;99.90
14097;DHT22;7125;48.106;11.544;2023-09-12T05:54:41;15.60;99.90
14097;DHT22;7125;48.106;11.544;2023-09-12T05:57:08;15.70;99.90
14097;DHT22;7125;48.106;11.544;2023-09-12T05:59:37;15.70;99.90
14097;DHT22;7125;48.106;11.544;2023-09-12T06:02:06;15.80;99.90
14097;DHT22;7125;48.106;11.544;2023-09-12T06:04:37;15.80;99.90
14097;DHT22;7125;48.106;11.544;2023-09-12T06:07:04;15.90;99.90
14097;DHT22;7125;48.106;11.544;2023-09-12T06:09:31;15.90;99.90
14097;DHT22;7125;48.106;11.544;2023-09-12T06:11:58;16.00;99.90
14097;DHT22;7125;48.106;11.544;2023-09-12T06:14:25;16.00;99.90
14097;DHT22;7125;48.106;11.544;2023-09-12T06:16:52;16.00;99.90
14097;DHT22;7125;48.106;11.544;2023-09-12T06:19:19;16.10;99.90
14097;DHT22;7125;48.106;11.544;2023-09-12T06:21:47;16.20;99.90
14097;DHT22;7125;48.106;11.544;2023-09-12T06:24:16;16.30;99.90
14097;DHT22;7125;48.106;11.544;2023-09-12T06:26:43;16.30;99.90
14097;DHT22;7125;48.106;11.544;2023-09-12T06:29:10;16.40;99.90
14097;DHT22;7125;48.106;11.544;2023-09-12T06:31:37;16.50;99.90
14097;DHT22;7125;48.106;11.544;2023-09-12T06:34:04;16.60;99.90
14097;DHT22;7125;48.106;11.544;2023-09-12T06:36:31;16.70;99.90
14097;DHT22;7125;48.106;11.544;2023-09-12T06:39:00;16.70;99.90
14097;DHT22;7125;48.106;11.544;2023-09-12T06:41:27;16.80;99.90
14097;DHT22;7125;48.106;11.544;2023-09-12T06:43:54;16.90;99.90
14097;DHT22;7125;48.106;11.544;2023-09-12T06:46:22;17.00;99.90
14097;DHT22;7125;48.106;11.544;2023-09-12T06:48:49;17.10;99.90
14097;DHT22;7125;48.106;11.544;2023-09-12T06:51:17;17.10;99.90
14097;DHT22;7125;48.106;11.544;2023-09-12T06:53:43;17.20;99.90
14097;DHT22;7125;48.106;11.544;2023-09-12T06:56:12;17.30;99.90
14097;DHT22;7125;48.106;11.544;2023-09-12T06:58:40;17.40;99.90
14097;DHT22;7125;48.106;11.544;2023-09-12T07:01:07;17.50;99.90
14097;DHT22;7125;48.106;11.544;2023-09-12T07:03:35;17.50;99.90
14097;DHT22;7125;48.106;11.544;2023-09-12T07:06:03;17.60;99.90
14097;DHT22;7125;48.106;11.544;2023-09-12T07:08:31;17.70;99.90
14097;DHT22;7125;48.106;11.544;2023-09-12T07:11:01;17.80;99.90
14097;DHT22;7125;48.106;11.544;2023-09-12T07:13:32;17.90;99.90
14097;DHT22;7125;48.106;11.544;2023-09-12T07:16:00;18.00;99.90
14097;DHT22;7125;48.106;11.544;2023-09-12T07:18:29;18.20;99.90
14097;DHT22;7125;48.106;11.544;2023-09-12T07:20:58;18.30;99.90
14097;DHT22;7125;48.106;11.544;2023-09-12T07:23:26;18.40;99.90
14097;DHT22;7125;48.106;11.544;2023-09-12T07:25:54;18.50;99.90
14097;DHT22;7125;48.106;11.544;2023-09-12T07:28:23;18.60;99.90
14097;DHT22;7125;48.106;11.544;2023-09-12T07:30:51;18.70;99.90
14097;DHT22;7125;48.106;11.544;2023-09-12T07:33:18;18.70;99.90
14097;DHT22;7125;48.106;11.544;2023-09-12T07:35:46;18.90;99.90
14097;DHT22;7125;48.106;11.544;2023-09-12T07:38:13;19.00;99.90
14097;DHT22;7125;48.106;11.544;2023-09-12T07:40:41;19.10;99.90
14097;DHT22;7125;48.106;11.544;2023-09-12T07:43:08;19.30;99.90
14097;DHT22;7125;48.106;11.544;2023-09-12T07:45:36;19.40;99.90
14097;DHT22;7125;48.106;11.544;2023-09-12T07:48:06;19.60;99.90
14097;DHT22;7125;48.106;11.544;2023-09-12T07:50:34;19.70;99.90
14097;DHT22;7125;48.106;11.544;2023-09-12T07:53:01;19.80;99.90
14097;DHT22;7125;48.106;11.544;2023-09-12T07:55:28;19.90;99.90
14097;DHT22;7125;48.106;11.544;2023-09-12T07:58:00;20.00;99.90
14097;DHT22;7125;48.106;11.544;2023-09-12T08:00:27;20.20;99.90
14097;DHT22;7125;48.106;11.544;2023-09-12T08:02:54;20.30;99.90
14097;DHT22;7125;48.106;11.544;2023-09-12T08:05:22;20.40;99.90
14097;DHT22;7125;48.106;11.544;2023-09-12T08:07:49;20.60;99.90
14097;DHT22;7125;48.106;11.544;2023-09-12T08:10:16;20.60;99.90
14097;DHT22;7125;48.106;11.544;2023-09-12T08:12:42;20.80;99.90
14097;DHT22;7125;48.106;11.544;2023-09-12T08:15:10;20.90;99.90
14097;DHT22;7125;48.106;11.544;2023-09-12T08:17:38;21.00;99.90
14097;DHT22;7125;48.106;11.544;2023-09-12T08:20:06;21.10;99.90
14097;DHT22;7125;48.106;11.544;2023-09-12T08:22:36;21.20;99.90
14097;DHT22;7125;48.106;11.544;2023-09-12T08:25:04;21.20;99.90
14097;DHT22;7125;48.106;11.544;2023-09-12T08:27:31;21.30;99.90
14097;DHT22;7125;48.106;11.544;2023-09-12T08:29:58;21.40;99.90
14097;DHT22;7125;48.106;11.544;2023-09-12T08:32:25;21.40;99.90
14097;DHT22;7125;48.106;11.544;2023-09-12T08:34:52;21.50;99.90
14097;DHT22;7125;48.106;11.544;2023-09-12T08:37:19;21.60;99.90
14097;DHT22;7125;48.106;11.544;2023-09-12T08:39:48;21.70;99.90
14097;DHT22;7125;48.106;11.544;2023-09-12T08:42:15;21.90;99.90
14097;DHT22;7125;48.106;11.544;2023-09-12T08:44:43;22.00;99.90
14097;DHT22;7125;48.106;11.544;2023-09-12T08:47:11;22.10;99.90
14097;DHT22;7125;48.106;11.544;2023-09-12T08:49:38;22.30;99.90
14097;DHT22;7125;48.106;11.544;2023-09-12T08:52:07;22.40;99.90
14097;DHT22;7125;48.106;11.544;2023-09-12T08:54:34;22.40;99.90
14097;DHT22;7125;48.106;11.544;2023-09-12T08:57:05;22.50;99.90
14097;DHT22;7125;48.106;11.544;2023-09-12T08:59:33;22.60;99.90
14097;DHT22;7125;48.106;11.544;2023-09-12T09:02:01;22.70;99.90
14097;DHT22;7125;48.106;11.544;2023-09-12T09:04:31;22.70;99.90
14097;DHT22;7125;48.106;11.544;2023-09-12T09:07:01;22.70;99.90
14097;DHT22;7125;48.106;11.544;2023-09-12T09:09:30;22.90;99.90
14097;DHT22;7125;48.106;11.544;2023-09-12T09:11:58;22.90;99.90
14097;DHT22;7125;48.106;11.544;2023-09-12T09:14:27;23.00;99.90
14097;DHT22;7125;48.106;11.544;2023-09-12T09:16:56;23.00;99.90
14097;DHT22;7125;48.106;11.544;2023-09-12T09:19:40;23.10;99.90
14097;DHT22;7125;48.106;11.544;2023-09-12T09:22:07;23.20;99.90
14097;DHT22;7125;48.106;11.544;2023-09-12T09:24:34;23.30;99.90
14097;DHT22;7125;48.106;11.544;2023-09-12T09:27:02;23.30;99.90
14097;DHT22;7125;48.106;11.544;2023-09-12T09:29:30;23.40;99.90
14097;DHT22;7125;48.106;11.544;2023-09-12T09:32:00;23.50;99.90
14097;DHT22;7125;48.106;11.544;2023-09-12T09:34:27;23.60;99.90
14097;DHT22;7125;48.106;11.544;2023-09-12T09:36:56;23.70;99.90
14097;DHT22;7125;48.106;11.544;2023-09-12T09:39:25;23.80;99.90
14097;DHT22;7125;48.106;11.544;2023-09-12T09:41:53;23.90;99.90
14097;DHT22;7125;48.106;11.544;2023-09-12T09:44:21;24.10;99.90
14097;DHT22;7125;48.106;11.544;2023-09-12T09:46:55;24.20;99.90
14097;DHT22;7125;48.106;11.544;2023-09-12T09:49:22;24.30;99.90
14097;DHT22;7125;48.106;11.544;2023-09-12T09:51:49;24.30;99.90
14097;DHT22;7125;48.106;11.544;2023-09-12T09:54:15;24.30;99.90
14097;DHT22;7125;48.106;11.544;2023-09-12T09:56:46;24.40;99.90
14097;DHT22;7125;48.106;11.544;2023-09-12T09:59:14;24.50;99.90
14097;DHT22;7125;48.106;11.544;2023-09-12T10:01:43;24.50;99.90
14097;DHT22;7125;48.106;11.544;2023-09-12T10:04:12;24.60;99.90
14097;DHT22;7125;48.106;11.544;2023-09-12T10:06:43;24.70;99.90
14097;DHT22;7125;48.106;11.544;2023-09-12T10:09:12;24.70;99.90
14097;DHT22;7125;48.106;11.544;2023-09-12T10:11:40;24.60;99.90
14097;DHT22;7125;48.106;11.544;2023-09-12T10:14:07;24.60;99.90
14097;DHT22;7125;48.106;11.544;2023-09-12T10:16:38;24.50;99.90
14097;DHT22;7125;48.106;11.544;2023-09-12T10:19:13;24.50;99.90
14097;DHT22;7125;48.106;11.544;2023-09-12T10:21:46;24.50;99.90
14097;DHT22;7125;48.106;11.544;2023-09-12T10:24:15;24.70;99.90
14097;DHT22;7125;48.106;11.544;2023-09-12T10:26:43;24.80;99.90
14097;DHT22;7125;48.106;11.544;2023-09-12T10:29:13;24.90;99.90
14097;DHT22;7125;48.106;11.544;2023-09-12T10:31:40;24.90;99.90
14097;DHT22;7125;48.106;11.544;2023-09-12T10:34:08;25.00;99.90
14097;DHT22;7125;48.106;11.544;2023-09-12T10:36:40;25.10;99.90
14097;DHT22;7125;48.106;11.544;2023-09-12T10:39:08;25.20;99.90
14097;DHT22;7125;48.106;11.544;2023-09-12T10:41:37;25.20;99.90
14097;DHT22;7125;48.106;11.544;2023-09-12T10:44:09;25.20;99.90
14097;DHT22;7125;48.106;11.544;2023-09-12T10:46:37;25.10;99.90
14097;DHT22;7125;48.106;11.544;2023-09-12T10:49:06;25.10;99.90
14097;DHT22;7125;48.106;11.544;2023-09-12T10:51:38;25.10;99.90
14097;DHT22;7125;48.106;11.544;2023-09-12T10:54:06;25.00;99.90
14097;DHT22;7125;48.106;11.544;2023-09-12T10:56:34;25.00;99.90
14097;DHT22;7125;48.106;11.544;2023-09-12T10:59:12;25.10;99.90
14097;DHT22;7125;48.106;11.544;2023-09-12T11:01:41;25.10;99.90
14097;DHT22;7125;48.106;11.544;2023-09-12T11:04:33;25.20;98.80
14097;DHT22;7125;48.106;11.544;2023-09-12T11:07:02;25.40;98.80
14097;DHT22;7125;48.106;11.544;2023-09-12T11:10:15;25.50;99.90
14097;DHT22;7125;48.106;11.544;2023-09-12T11:12:44;25.50;99.90
14097;DHT22;7125;48.106;11.544;2023-09-12T11:15:12;25.60;98.90
14097;DHT22;7125;48.106;11.544;2023-09-12T11:17:41;25.60;98.70
14097;DHT22;7125;48.106;11.544;2023-09-12T11:20:10;25.60;99.70
14097;DHT22;7125;48.106;11.544;2023-09-12T11:22:40;25.60;99.90
14097;DHT22;7125;48.106;11.544;2023-09-12T11:25:16;25.60;99.90
14097;DHT22;7125;48.106;11.544;2023-09-12T11:28:03;25.60;99.90
14097;DHT22;7125;48.106;11.544;2023-09-12T11:30:31;25.70;98.60
14097;DHT22;7125;48.106;11.544;2023-09-12T11:32:58;25.70;99.90
14097;DHT22;7125;48.106;11.544;2023-09-12T11:35:27;25.70;99.90
14097;DHT22;7125;48.106;11.544;2023-09-12T11:37:57;25.70;99.50
14097;DHT22;7125;48.106;11.544;2023-09-12T11:40:25;25.70;98.20
14097;DHT22;7125;48.106;11.544;2023-09-12T11:42:54;25.80;99.00
14097;DHT22;7125;48.106;11.544;2023-09-12T11:45:22;25.90;99.90
14097;DHT22;7125;48.106;11.544;2023-09-12T11:47:49;25.90;99.90
14097;DHT22;7125;48.106;11.544;2023-09-12T11:50:27;25.90;99.90
14097;DHT22;7125;48.106;11.544;2023-09-12T11:53:03;25.90;98.00
14097;DHT22;7125;48.106;11.544;2023-09-12T11:55:36;25.80;99.90
14097;DHT22;7125;48.106;11.544;2023-09-12T11:58:04;25.80;99.90
14097;DHT22;7125;48.106;11.544;2023-09-12T12:00:31;25.80;99.90
14097;DHT22;7125;48.106;11.544;2023-09-12T12:02:59;25.80;99.90
14097;DHT22;7125;48.106;11.544;2023-09-12T12:05:26;25.90;99.90
14097;DHT22;7125;48.106;11.544;2023-09-12T12:07:53;26.00;98.60
14097;DHT22;7125;48.106;11.544;2023-09-12T12:10:23;26.10;99.50
14097;DHT22;7125;48.106;11.544;2023-09-12T12:12:53;26.20;99.90
14097;DHT22;7125;48.106;11.544;2023-09-12T12:15:20;26.30;96.20
14097;DHT22;7125;48.106;11.544;2023-09-12T12:17:47;26.40;97.30
14097;DHT22;7125;48.106;11.544;2023-09-12T12:20:14;26.50;97.60
14097;DHT22;7125;48.106;11.544;2023-09-12T12:22:41;26.50;95.90
14097;DHT22;7125;48.106;11.544;2023-09-12T12:25:09;26.50;95.10
14097;DHT22;7125;48.106;11.544;2023-09-12T12:27:38;26.60;93.80
14097;DHT22;7125;48.106;11.544;2023-09-12T12:30:07;26.70;94.50
14097;DHT22;7125;48.106;11.544;2023-09-12T12:32:36;26.80;95.10
14097;DHT22;7125;48.106;11.544;2023-09-12T12:35:04;26.80;94.50
14097;DHT22;7125;48.106;11.544;2023-09-12T12:37:31;26.90;95.40
14097;DHT22;7125;48.106;11.544;2023-09-12T12:39:58;27.00;94.80
14097;DHT22;7125;48.106;11.544;2023-09-12T12:42:32;27.10;93.50
14097;DHT22;7125;48.106;11.544;2023-09-12T12:45:01;27.10;93.30
14097;DHT22;7125;48.106;11.544;2023-09-12T12:47:28;27.30;90.10
14097;DHT22;7125;48.106;11.544;2023-09-12T12:49:57;27.40;92.00
14097;DHT22;7125;48.106;11.544;2023-09-12T12:52:24;27.50;90.70
14097;DHT22;7125;48.106;11.544;2023-09-12T12:54:51;27.50;89.20
14097;DHT22;7125;48.106;11.544;2023-09-12T12:57:20;27.70;89.50
14097;DHT22;7125;48.106;11.544;2023-09-12T12:59:47;27.70;90.90
14097;DHT22;7125;48.106;11.544;2023-09-12T13:02:18;27.90;89.70
14097;DHT22;7125;48.106;11.544;2023-09-12T13:04:45;28.00;89.10
14097;DHT22;7125;48.106;11.544;2023-09-12T13:07:12;28.00;89.30
14097;DHT22;7125;48.106;11.544;2023-09-12T13:09:39;28.10;88.10
14097;DHT22;7125;48.106;11.544;2023-09-12T13:12:06;28.10;89.40
14097;DHT22;7125;48.106;11.544;2023-09-12T13:14:34;28.20;87.70
14097;DHT22;7125;48.106;11.544;2023-09-12T13:17:01;28.30;87.10
14097;DHT22;7125;48.106;11.544;2023-09-12T13:19:30;28.30;89.30
14097;DHT22;7125;48.106;11.544;2023-09-12T13:21:57;28.30;86.20
14097;DHT22;7125;48.106;11.544;2023-09-12T13:24:24;28.40;80.20
14097;DHT22;7125;48.106;11.544;2023-09-12T13:26:53;28.50;81.50
14097;DHT22;7125;48.106;11.544;2023-09-12T13:29:20;28.60;77.60
14097;DHT22;7125;48.106;11.544;2023-09-12T13:31:47;28.60;80.90
14097;DHT22;7125;48.106;11.544;2023-09-12T13:34:14;28.60;78.90
14097;DHT22;7125;48.106;11.544;2023-09-12T13:36:42;28.70;77.50
14097;DHT22;7125;48.106;11.544;2023-09-12T13:39:09;28.70;79.70
14097;DHT22;7125;48.106;11.544;2023-09-12T13:41:38;28.80;79.90
14097;DHT22;7125;48.106;11.544;2023-09-12T13:44:05;28.90;77.40
14097;DHT22;7125;48.106;11.544;2023-09-12T13:46:32;28.90;78.20
14097;DHT22;7125;48.106;11.544;2023-09-12T13:48:59;28.90;78.60
14097;DHT22;7125;48.106;11.544;2023-09-12T13:51:29;29.00;75.20
14097;DHT22;7125;48.106;11.544;2023-09-12T13:53:57;29.00;78.00
14097;DHT22;7125;48.106;11.544;2023-09-12T13:56:24;29.00;75.10
14097;DHT22;7125;48.106;11.544;2023-09-12T13:58:51;28.90;74.90
14097;DHT22;7125;48.106;11.544;2023-09-12T14:01:18;28.90;76.80
14097;DHT22;7125;48.106;11.544;2023-09-12T14:03:46;28.90;77.70
14097;DHT22;7125;48.106;11.544;2023-09-12T14:06:12;28.90;77.10
14097;DHT22;7125;48.106;11.544;2023-09-12T14:08:39;28.90;77.80
14097;DHT22;7125;48.106;11.544;2023-09-12T14:11:07;28.90;80.90
14097;DHT22;7125;48.106;11.544;2023-09-12T14:13:34;28.80;80.00
14097;DHT22;7125;48.106;11.544;2023-09-12T14:16:01;28.70;80.60
14097;DHT22;7125;48.106;11.544;2023-09-12T14:18:28;28.70;80.80
14097;DHT22;7125;48.106;11.544;2023-09-12T14:20:55;28.60;82.50
14097;DHT22;7125;48.106;11.544;2023-09-12T14:23:23;28.50;79.50
14097;DHT22;7125;48.106;11.544;2023-09-12T14:25:50;28.40;83.50
14097;DHT22;7125;48.106;11.544;2023-09-12T14:28:18;28.30;82.30
14097;DHT22;7125;48.106;11.544;2023-09-12T14:30:45;28.30;77.00
14097;DHT22;7125;48.106;11.544;2023-09-12T14:33:14;28.30;79.40
14097;DHT22;7125;48.106;11.544;2023-09-12T14:35:41;28.30;81.70
14097;DHT22;7125;48.106;11.544;2023-09-12T14:38:08;28.20;83.10
14097;DHT22;7125;48.106;11.544;2023-09-12T14:40:35;28.30;80.40
14097;DHT22;7125;48.106;11.544;2023-09-12T14:43:03;28.30;73.30
14097;DHT22;7125;48.106;11.544;2023-09-12T14:45:33;28.30;79.30
14097;DHT22;7125;48.106;11.544;2023-09-12T14:48:00;28.40;80.10
14097;DHT22;7125;48.106;11.544;2023-09-12T14:50:27;28.40;83.80
14097;DHT22;7125;48.106;11.544;2023-09-12T14:52:55;28.40;85.00
14097;DHT22;7125;48.106;11.544;2023-09-12T14:55:22;28.40;87.00
14097;DHT22;7125;48.106;11.544;2023-09-12T14:57:49;28.40;79.80
14097;DHT22;7125;48.106;11.544;2023-09-12T15:00:18;28.40;79.40
14097;DHT22;7125;48.106;11.544;2023-09-12T15:02:46;28.50;80.70
14097;DHT22;7125;48.106;11.544;2023-09-12T15:05:13;28.50;83.40
14097;DHT22;7125;48.106;11.544;2023-09-12T15:07:40;28.60;83.90
14097;DHT22;7125;48.106;11.544;2023-09-12T15:10:08;28.70;81.10
14097;DHT22;7125;48.106;11.544;2023-09-12T15:12:35;28.70;81.80
14097;DHT22;7125;48.106;11.544;2023-09-12T15:15:03;28.70;87.00
14097;DHT22;7125;48.106;11.544;2023-09-12T15:17:30;28.80;82.70
14097;DHT22;7125;48.106;11.544;2023-09-12T15:19:58;28.90;81.50
14097;DHT22;7125;48.106;11.544;2023-09-12T15:22:25;28.80;84.70
14097;DHT22;7125;48.106;11.544;2023-09-12T15:24:53;28.80;85.80
14097;DHT22;7125;48.106;11.544;2023-09-12T15:27:20;28.70;86.40
14097;DHT22;7125;48.106;11.544;2023-09-12T15:29:47;28.60;85.20
14097;DHT22;7125;48.106;11.544;2023-09-12T15:32:13;28.60;89.10
14097;DHT22;7125;48.106;11.544;2023-09-12T15:34:41;28.50;87.70
14097;DHT22;7125;48.106;11.544;2023-09-12T15:37:10;28.50;88.20
14097;DHT22;7125;48.106;11.544;2023-09-12T15:39:38;28.50;87.50